Latest Coastal Weather Observations for Low Rocky Point

IDT60701

Issued at 11:32 pm EDT Thursday 18 December 2014 (issued every 10 minutes, with the page automatically refreshed every 10 minutes)

About coastal observations | Map of coastal stations | Coastal observations for TAS | Marine services | Other Formats
Station Details ID: 097080 Name: LOW ROCKY POINT Lat: -42.98 Lon: 145.50 Height: 34.0 m
Data from the previous 72 hours. | See also: Recent months at Low Rocky Point
Date/Time
EDT
Temp

°C
Wind Pressure Rain
since 9am
mm
Weather Cloud Vis
km
Sea
Height
m
Swell
Dir
 
Speed
knots
Gust
knots
hPa Trend Height
m
Period
s
Dir
18/11:30pm 11.6 WSW 14 19 1008.2 - 4.8 - - - - - - -
18/11:00pm 12.3 WSW 17 20 1007.9 - 4.8 - - - - - - -
18/10:30pm 12.3 W 17 22 1007.6 - 4.8 - - - - - - -
18/10:00pm 12.3 W 18 22 1007.5 - 4.8 - - - - - - -
18/09:30pm 12.4 W 20 24 1007.1 - 4.8 - - - - - - -
18/09:00pm 12.7 W 18 21 1006.6 - 4.8 - - - - - - -
18/08:30pm 12.9 W 19 24 1006.3 - 4.8 - - - - - - -
18/08:00pm 13.5 W 20 24 1005.9 - 4.8 - - - - - - -
18/07:30pm 13.5 W 19 23 1005.4 - 4.8 - - - - - - -
18/07:00pm 14.0 W 18 21 1004.9 - 4.8 - - - - - - -
18/06:30pm 14.2 W 19 24 1004.2 - 4.8 - - - - - - -
18/06:00pm 14.7 WNW 21 26 1003.6 - 4.8 - - - - - - -
18/05:30pm 14.0 WNW 25 29 1003.1 - 4.8 - - - - - - -
18/05:00pm 14.4 WNW 24 29 1002.7 - 4.8 - - - - - - -
18/04:30pm 13.6 WNW 22 29 1002.1 - 4.8 - - - - - - -
18/04:00pm 12.9 NW 22 27 1001.7 - 4.8 Recent precip. - - - - - -
18/03:30pm 12.0 NW 27 35 1001.1 - 4.6 - - - - - - -
18/03:27pm 12.8 NW 25 35 1001.1 - 4.6 - - - - - - -
18/03:00pm 11.9 NW 27 32 1001.0 - 4.6 Recent precip. - - - - - -
18/02:47pm 12.4 NW 26 36 1000.7 - 4.6 - - - - - - -
18/02:30pm 12.8 NW 26 33 1000.8 - 4.6 - - - - - - -
18/02:00pm 12.1 NW 25 31 1000.7 - 4.4 Recent precip. - - - - - -
18/01:30pm 11.9 NW 25 31 1000.5 - 3.8 - - - - - - -
18/01:00pm 13.0 NNW 26 40 999.5 - 1.6 Rain - - - - - -
18/12:49pm 13.6 NNW 23 34 999.7 - 1.2 - - - - - - -
18/12:30pm 13.4 NNW 25 33 999.8 - 0.8 - - - - - - -
18/12:06pm 14.0 NNW 31 41 999.6 - 0.2 - - - - - - -
18/12:00pm 14.4 NNW 32 41 999.5 - 0.2 Rain - - - - - -
18/11:55am 14.5 NNW 30 41 999.3 - 0.2 - - - - - - -
18/11:30am 15.9 NNW 21 32 999.6 - 0.0 - - - - - - -
18/11:11am 16.9 NNW 19 29 999.6 - 0.0 - - - - - - -
18/11:00am 16.4 NNW 21 30 999.7 - 0.0 - - - - - - -
18/10:30am 15.3 NNW 22 33 999.9 - 0.0 - - - - - - -
18/10:00am 15.7 NNW 19 29 1000.3 - 0.0 - - - - - - -
18/09:48am 15.4 NNW 19 29 1000.4 - 0.0 - - - - - - -
18/09:30am 15.2 NNW 17 25 1000.8 - 0.0 - - - - - - -
18/09:00am 14.9 NNW 20 31 1000.8 - 0.0 - - - - - - -
18/08:33am 14.2 N 17 28 1001.0 - 0.0 - - - - - - -
18/08:30am 14.2 NNW 17 25 1001.1 - 0.0 - - - - - - -
18/08:02am 13.6 N 15 25 1001.4 - 0.0 - - - - - - -
18/08:00am 13.5 N 14 23 1001.4 - 0.0 - - - - - - -
18/07:30am 12.9 N 17 24 1001.6 - 0.0 - - - - - - -
18/07:00am 12.8 N 19 29 1001.6 - 0.0 - - - - - - -
18/06:58am 12.8 N 18 29 1001.6 - 0.0 - - - - - - -
18/06:30am 12.3 N 16 22 1001.5 - 0.0 - - - - - - -
18/06:00am 12.0 N 14 19 1001.5 - 0.0 - - - - - - -
18/05:30am 11.5 N 13 18 1001.6 - 0.0 - - - - - - -
18/05:00am 11.7 N 14 18 1001.7 - 0.0 - - - - - - -
18/04:30am 11.4 N 16 22 1001.7 - 0.0 - - - - - - -
18/04:00am 11.5 N 14 19 1001.9 - 0.0 - - - - - - -
18/03:30am 11.3 N 14 19 1002.3 - 0.0 - - - - - - -
18/03:00am 10.5 N 12 16 1002.7 - 0.0 - - - - - - -
18/02:30am 10.9 N 14 19 1002.9 - 0.0 - - - - - - -
18/02:00am 11.5 N 14 19 1003.3 - 0.0 - - - - - - -
18/01:30am 11.4 N 13 18 1003.5 - 0.0 - - - - - - -
18/01:00am 11.3 N 15 19 1003.7 - 0.0 - - - - - - -
18/12:30am 10.8 N 14 18 1004.0 - 0.0 - - - - - - -
18/12:00am 11.1 N 13 17 1004.3 - 0.0 - - - - - - -
 
Date/Time
EDT
Temp

°C
Wind Pressure Rain
since 9am
mm
Weather Cloud Vis
km
Sea
Height
m
Swell
Dir
 
Speed
knots
Gust
knots
hPa Trend Height
m
Period
s
Dir
17/11:30pm 11.5 N 15 20 1004.5 - 0.0 - - - - - - -
17/11:00pm 11.3 N 13 17 1005.0 - 0.0 - - - - - - -
17/10:30pm 10.9 N 13 17 1005.2 - 0.0 - - - - - - -
17/10:00pm 11.2 N 12 15 1005.4 - 0.0 - - - - - - -
17/09:30pm 11.7 N 12 15 1005.3 - 0.0 - - - - - - -
17/09:00pm 12.7 NNW 14 21 1005.4 - 0.0 - - - - - - -
17/08:30pm 13.4 NW 20 25 1005.4 - 0.0 - - - - - - -
17/08:00pm 13.6 NW 23 28 1005.2 - 0.0 - - - - - - -
17/07:30pm 13.4 NNW 20 25 1005.1 - 0.0 - - - - - - -
17/07:00pm 13.6 NW 21 25 1005.0 - 0.0 - - - - - - -
17/06:30pm 14.3 NW 20 25 1005.1 - 0.0 - - - - - - -
17/06:00pm 14.5 NW 19 25 1005.0 - 0.0 - - - - - - -
17/05:30pm 13.0 NW 20 24 1005.2 - 0.0 - - - - - - -
17/05:03pm 13.7 NW 18 32 1005.2 - 0.0 - - - - - - -
17/05:00pm 14.4 NW 17 22 1005.2 - 0.0 - - - - - - -
17/04:30pm 14.3 NW 21 25 1005.2 - 0.0 - - - - - - -
17/04:00pm 16.0 NW 18 23 1005.2 - 0.0 - - - - - - -
17/03:30pm 14.0 NW 17 21 1005.3 - 0.0 - - - - - - -
17/03:04pm 13.7 NW 19 32 1005.0 - 0.0 - - - - - - -
17/03:00pm 14.1 NW 18 22 1005.1 - 0.0 - - - - - - -
17/02:30pm 15.9 NW 18 22 1005.0 - 0.0 - - - - - - -
17/02:00pm 15.4 WNW 19 23 1005.0 - 0.0 - - - - - - -
17/01:30pm 15.6 WNW 18 23 1005.1 - 0.0 - - - - - - -
17/01:00pm 15.4 WNW 18 22 1005.0 - 0.0 - - - - - - -
17/12:30pm 15.0 WNW 17 22 1004.9 - 0.0 - - - - - - -
17/12:00pm 15.1 WNW 17 21 1004.6 - 0.0 - - - - - - -
17/11:30am 14.4 WNW 18 21 1004.4 - 0.0 - - - - - - -
17/11:00am 14.5 W 16 21 1004.1 - 0.0 - - - - - - -
17/10:30am 14.0 WNW 19 23 1003.7 - 0.0 - - - - - - -
17/10:00am 13.7 W 20 24 1003.6 - 0.0 - - - - - - -
17/09:30am 13.2 W 19 24 1003.3 - 0.0 - - - - - - -
17/09:00am 13.2 W 17 22 1002.9 - 9.6 - - - - - - -
17/08:30am 12.8 W 18 23 1002.6 - 9.6 - - - - - - -
17/08:00am 12.4 W 22 27 1002.2 - 9.6 - - - - - - -
17/07:30am 12.3 W 20 24 1001.8 - 9.6 - - - - - - -
17/07:00am 11.8 W 22 26 1001.4 - 9.6 - - - - - - -
17/06:30am 11.6 WSW 22 27 1001.0 - 9.6 - - - - - - -
17/06:06am 10.9 WSW 22 32 1000.7 - 9.6 - - - - - - -
17/06:00am 11.2 W 23 32 1000.5 - 9.6 - - - - - - -
17/05:30am 11.6 W 20 25 999.9 - 9.6 - - - - - - -
17/05:00am 11.4 W 23 30 999.4 - 9.6 - - - - - - -
17/04:30am 11.6 W 23 28 998.8 - 9.6 - - - - - - -
17/04:00am 11.5 W 21 27 998.6 - 9.6 - - - - - - -
17/03:30am 11.4 W 23 28 998.2 - 9.6 - - - - - - -
17/03:00am 11.4 W 24 29 997.9 - 9.6 - - - - - - -
17/02:30am 11.7 W 26 33 997.5 - 9.6 - - - - - - -
17/02:00am 11.5 WSW 23 31 997.2 - 9.6 - - - - - - -
17/01:51am 11.4 WSW 23 33 997.1 - 9.6 - - - - - - -
17/01:30am 11.9 W 26 31 996.6 - 9.6 - - - - - - -
17/01:00am 11.9 W 26 32 996.5 - 9.6 - - - - - - -
17/12:30am 12.0 W 25 31 996.0 - 9.6 - - - - - - -
17/12:00am 12.1 W 26 33 995.4 - 9.6 - - - - - - -
 
Date/Time
EDT
Temp

°C
Wind Pressure Rain
since 9am
mm
Weather Cloud Vis
km
Sea
Height
m
Swell
Dir
 
Speed
knots
Gust
knots
hPa Trend Height
m
Period
s
Dir
16/11:30pm 12.1 WSW 27 37 994.8 - 9.6 - - - - - - -
16/11:01pm 11.6 W 27 37 994.0 - 9.6 - - - - - - -
16/11:00pm 11.8 W 27 36 994.1 - 9.6 Recent precip. - - - - - -
16/10:30pm 10.5 WSW 28 39 993.6 - 9.4 - - - - - - -
16/10:26pm 11.6 W 27 39 993.3 - 9.4 - - - - - - -
16/10:00pm 11.3 W 28 35 992.8 - 9.2 Recent precip. - - - - - -
16/09:30pm 12.1 W 25 31 991.7 - 9.2 - - - - - - -
16/09:00pm 12.4 W 29 35 990.7 - 8.8 Recent precip. - - - - - -
16/08:30pm 12.1 WNW 26 31 989.9 - 8.8 - - - - - - -
16/08:00pm 12.0 WNW 29 34 989.0 - 8.6 Rain - - - - - -
16/07:30pm 11.8 WNW 29 36 988.2 - 8.2 - - - - - - -
16/07:00pm 12.2 WNW 34 43 987.2 - 7.8 Recent precip. - - - - - -
16/06:55pm 12.3 WNW 33 43 986.8 - 7.8 - - - - - - -
16/06:30pm 12.8 WNW 34 43 986.0 - 7.6 - - - - - - -
16/06:15pm 12.9 NW 34 44 985.6 - 7.6 - - - - - - -
16/06:00pm 13.1 NW 33 41 985.7 - 7.6 Rain - - - - - -
16/05:40pm 12.4 NNW 27 39 985.8 - 7.0 - - - - - - -
16/05:30pm 12.8 NNW 21 31 985.7 - 6.6 - - - - - - -
16/05:28pm 12.7 NNW 23 32 985.7 - 6.6 - - - - - - -
16/05:23pm 12.4 NW 27 36 985.3 - 6.4 - - - - - - -
16/05:00pm 13.7 NW 32 47 985.9 - 3.4 Rain - - - - - -
16/04:55pm 14.5 NW 30 40 985.9 - 3.0 - - - - - - -
16/04:30pm 15.4 NW 25 31 985.7 - 3.0 - - - - - - -
16/04:00pm 15.4 NW 26 34 986.3 - 3.0 - - - - - - -
16/03:30pm 15.0 NW 26 33 987.3 - 3.0 - - - - - - -
16/03:14pm 15.4 NW 23 33 987.2 - 3.0 - - - - - - -
16/03:00pm 15.2 NW 24 31 987.5 - 3.0 - - - - - - -
16/02:30pm 16.5 NW 21 27 987.4 - 3.0 - - - - - - -
16/02:12pm 17.3 NW 15 25 987.5 - 3.0 - - - - - - -
16/02:00pm 18.8 NNW 11 15 987.2 - 3.0 - - - - - - -
16/01:30pm 16.4 NNW 13 18 988.3 - 3.0 - - - - - - -
16/01:00pm 16.0 NW 15 18 989.1 - 3.0 Recent precip. - - - - - -
16/12:30pm 14.9 NW 17 22 990.0 - 3.0 - - - - - - -
16/12:00pm 13.7 NW 21 26 990.6 - 2.8 Rain - - - - - -
16/11:30am 13.9 NW 16 21 990.9 - 2.0 - - - - - - -
16/11:00am 15.0 NNW 12 15 990.8 - 0.0 - - - - - - -
16/10:30am 14.7 NW 10 12 991.7 - 0.0 - - - - - - -
16/10:00am 14.9 N 9 13 992.1 - 0.0 - - - - - - -
16/09:30am 14.4 NNW 6 8 992.6 - 0.0 - - - - - - -
16/09:00am 14.6 NNW 9 12 993.6 - 0.0 - - - - - - -
16/08:30am 14.9 NNW 6 8 993.8 - 0.0 - - - - - - -
16/08:00am 14.3 NNW 7 10 994.4 - 0.0 - - - - - - -
16/07:30am 13.0 NNW 7 9 994.4 - 0.0 - - - - - - -
16/07:00am 11.5 NNE 9 10 995.0 - 0.0 - - - - - - -
16/06:30am 10.3 N 9 10 995.4 - 0.0 - - - - - - -
16/06:00am 9.5 N 8 10 995.9 - 0.0 - - - - - - -
16/05:30am 9.9 NNE 5 7 996.2 - 0.0 - - - - - - -
16/05:00am 9.6 NE 8 9 996.3 - 0.0 - - - - - - -
16/04:30am 9.4 NE 7 8 996.5 - 0.0 - - - - - - -
16/04:00am 9.6 NE 3 4 997.4 - 0.0 - - - - - - -
16/03:30am 9.3 ENE 4 5 997.7 - 0.0 - - - - - - -
16/03:00am 9.3 ENE 7 8 998.0 - 0.0 - - - - - - -
16/02:30am 9.4 ENE 6 6 999.0 - 0.0 - - - - - - -
16/02:00am 9.8 E 8 9 999.5 - 0.0 - - - - - - -
16/01:30am 9.8 ENE 7 7 1000.7 - 0.0 - - - - - - -
16/01:00am 10.4 ENE 6 7 1001.7 - 0.0 - - - - - - -
16/12:30am 11.0 ENE 3 4 1002.6 - 0.0 - - - - - - -
16/12:00am 11.2 ENE 4 5 1003.0 - 0.0 - - - - - - -

Other Formats:

Comma delimited format used in spreadsheet applications
http://www.bom.gov.au/fwo/IDT60701/IDT60701.95961.axf

JavaScript Object Notation format (JSON) in row-major order
http://www.bom.gov.au/fwo/IDT60701/IDT60701.95961.json